Time;durP1;ratioP1;P1;durP2;ratioP2;P2;SDS_P1;SDS_P2;PMS_P1;PMS_P2;Temp;Humidity;BMP_temperature;BMP_pressure;BME280_temperature;BME280_humidity;BME280_pressure;Samples;Min_cycle;Max_cycle;Signal;HPM_P1;HPM_P2
2021/12/05 00:26:23;;;;;;;139.95;7.68;;;;;;;0.36;95.55;99959.34;10543897;28;20036;-74
2021/12/05 00:31:49;;;;;;;172.05;7.10;;;;;;;0.57;94.61;99998.75;10543646;28;20044;-74
2021/12/05 00:42:41;;;;;;;73.57;5.40;;;;;;;-0.56;94.17;99819.78;10543252;28;20032;-74
2021/12/05 00:47:47;;;;;;;144.88;5.57;;;;;;;0.43;94.08;99988.47;10509753;28;20071;-74
2021/12/05 00:53:20;;;;;;;207.68;7.32;;;;;;;-0.67;94.59;99805.84;10488161;28;20102;-74
2021/12/05 00:59:04;;;;;;;77.93;5.83;;;;;;;0.13;94.14;99952.34;10501279;28;20044;-74
2021/12/05 01:19:21;;;;;;;95.03;5.65;;;;;;;-0.33;95.11;99945.16;10500572;28;20515;-74
2021/12/05 01:24:50;;;;;;;72.60;4.90;;;;;;;-0.99;94.79;99816.75;10499060;28;20071;-74
2021/12/05 01:35:03;;;;;;;64.05;4.72;;;;;;;-1.06;95.41;99777.25;10486842;28;20418;-74
2021/12/05 01:46:07;;;;;;;64.13;4.93;;;;;;;0.17;95.13;99943.34;10481722;28;20071;-74
2021/12/05 02:33:23;;;;;;;58.28;5.13;;;;;;;-0.03;95.90;99927.34;10496995;28;20404;-74
2021/12/05 02:43:28;;;;;;;40.78;5.05;;;;;;;-0.17;95.53;99890.94;10496057;28;20044;-74
2021/12/05 02:48:32;;;;;;;44.88;5.28;;;;;;;0.31;95.79;99965.84;10495280;28;20510;-75
2021/12/05 02:53:48;;;;;;;60.15;5.25;;;;;;;-0.24;94.83;99898.38;10496092;28;20067;-74
2021/12/05 02:58:55;;;;;;;71.72;5.20;;;;;;;0.11;94.73;99989.00;10496344;28;20047;-73
2021/12/05 03:03:58;;;;;;;23.52;4.47;;;;;;;-0.11;95.28;99934.06;10496524;28;20075;-75
2021/12/05 03:09:13;;;;;;;28.23;4.63;;;;;;;-0.69;95.94;99847.69;10496723;28;20098;-75
2021/12/05 03:14:14;;;;;;;48.72;4.93;;;;;;;-0.36;95.65;99893.19;10495028;28;20037;-75
2021/12/05 03:19:16;;;;;;;17.33;4.60;;;;;;;0.30;96.42;100022.50;10478899;28;20512;-74
2021/12/05 03:24:19;;;;;;;30.67;4.93;;;;;;;-1.25;95.03;99748.22;10495172;28;20393;-74
2021/12/05 03:29:22;;;;;;;24.88;4.82;;;;;;;-0.13;95.09;99926.31;10497901;28;20040;-73
2021/12/05 03:34:24;;;;;;;30.95;4.55;;;;;;;0.04;94.31;99953.84;10504766;28;20095;-74
2021/12/05 03:39:27;;;;;;;27.33;4.70;;;;;;;0.18;94.34;100005.06;10504949;28;20036;-75
2021/12/05 03:44:32;;;;;;;17.40;4.55;;;;;;;-0.53;95.07;99910.88;10504287;28;20127;-74
2021/12/05 03:49:35;;;;;;;45.95;5.03;;;;;;;-0.13;94.93;99983.75;10503816;28;20056;-74
2021/12/05 03:54:36;;;;;;;41.72;6.40;;;;;;;-1.62;95.57;99743.78;10503432;28;20102;-74
2021/12/05 03:59:37;;;;;;;67.72;6.85;;;;;;;-0.30;96.08;99937.97;10502617;28;20036;-75
2021/12/05 04:04:39;;;;;;;68.80;6.18;;;;;;;0.13;95.99;100017.66;10502893;28;20043;-73
2021/12/05 04:09:41;;;;;;;65.95;6.72;;;;;;;-0.57;95.22;99930.31;10501441;28;20040;-73
2021/12/05 04:14:48;;;;;;;11.45;5.90;;;;;;;-0.15;94.88;99997.84;10497062;28;20090;-74
2021/12/05 04:19:50;;;;;;;9.75;5.45;;;;;;;-0.25;95.31;99968.97;10473869;28;20044;-72
2021/12/05 04:24:52;;;;;;;10.10;5.00;;;;;;;0.09;94.99;100018.78;10472893;28;20128;-73
2021/12/05 04:29:53;;;;;;;8.13;4.63;;;;;;;-0.82;95.63;99862.53;10492806;28;20500;-73
2021/12/05 04:34:54;;;;;;;10.07;4.88;;;;;;;-0.81;95.82;99867.63;10497336;28;20408;-72
2021/12/05 04:39:55;;;;;;;8.50;4.75;;;;;;;-0.79;95.38;99849.28;10510785;28;20399;-72
2021/12/05 04:44:56;;;;;;;8.38;4.97;;;;;;;0.09;95.19;99996.16;10541944;28;20051;-73
2021/12/05 04:49:57;;;;;;;7.43;4.93;;;;;;;0.02;95.12;100007.94;10543248;28;20506;-74
2021/12/05 04:54:58;;;;;;;7.07;4.55;;;;;;;0.11;95.37;100025.56;10523953;28;20127;-73
2021/12/05 04:59:59;;;;;;;11.32;4.50;;;;;;;0.08;95.03;100017.97;10543012;28;20101;-73
2021/12/05 05:05:00;;;;;;;8.30;4.57;;;;;;;0.16;94.71;99999.16;10542614;28;20036;-75
2021/12/05 05:10:18;;;;;;;8.65;4.55;;;;;;;-0.59;94.56;99932.19;10539302;28;20044;-73
2021/12/05 05:15:23;;;;;;;9.07;4.70;;;;;;;-0.37;95.18;99959.38;10541496;28;20044;-73
2021/12/05 05:20:42;;;;;;;;;;;;;;;0.23;93.64;100018.66;10523668;28;20123;-73
2021/12/05 05:42:05;;;;;;;11.48;4.90;;;;;;;-0.26;93.64;99952.47;10540589;28;20285;-73
2021/12/05 05:51:48;;;;;;;6.45;3.92;;;;;;;-0.51;93.83;99846.41;10539618;28;20044;-73
2021/12/05 05:56:55;;;;;;;8.50;4.18;;;;;;;-1.04;92.85;99732.84;10538749;28;20050;-72
2021/12/05 06:07:20;;;;;;;6.55;4.20;;;;;;;0.70;93.34;99997.84;10505636;28;20526;-72
2021/12/05 06:12:21;;;;;;;6.30;4.10;;;;;;;0.98;92.87;100056.78;10523697;28;20051;-72
2021/12/05 06:17:22;;;;;;;5.57;3.85;;;;;;;0.85;93.47;100021.09;10494448;28;20506;-72
2021/12/05 06:22:23;;;;;;;8.85;5.60;;;;;;;0.33;92.74;99902.09;10489480;28;20152;-72
2021/12/05 06:27:24;;;;;;;11.57;6.85;;;;;;;1.56;93.25;100047.19;10454211;28;20060;-71
2021/12/05 06:37:54;;;;;;;10.75;6.85;;;;;;;0.31;92.62;99843.91;10413892;28;20444;-73
2021/12/05 06:43:02;;;;;;;18.00;9.13;;;;;;;1.18;93.41;99964.56;10450825;28;20387;-73
2021/12/05 06:48:03;;;;;;;14.35;6.80;;;;;;;1.56;92.96;99971.25;10454042;28;20052;-73
2021/12/05 06:53:06;;;;;;;15.45;7.28;;;;;;;1.83;93.67;100054.69;10490013;28;20036;-73
2021/12/05 06:58:07;;;;;;;14.23;7.72;;;;;;;1.97;92.68;100017.75;10506640;28;20557;-71
2021/12/05 07:03:09;;;;;;;9.10;5.93;;;;;;;1.59;92.53;99935.19;10532394;28;20040;-72
2021/12/05 07:08:13;;;;;;;10.27;7.00;;;;;;;1.86;92.36;99960.16;10530950;28;20497;-72
2021/12/05 07:44:39;;;;;;;11.30;7.80;;;;;;;2.57;92.07;99978.03;10495198;28;20090;-71
2021/12/05 07:49:40;;;;;;;29.00;7.72;;;;;;;2.39;91.22;99927.94;10495766;28;20063;-70
2021/12/05 07:54:46;;;;;;;10.52;6.50;;;;;;;1.72;91.47;99806.75;10508278;28;20044;-72
2021/12/05 08:16:07;;;;;;;11.10;6.35;;;;;;;2.81;90.80;99838.78;10497979;28;20492;-72
2021/12/05 08:21:10;;;;;;;10.80;6.47;;;;;;;3.51;90.43;99950.03;10529400;28;20479;-70
2021/12/05 08:26:17;;;;;;;8.43;6.10;;;;;;;3.58;90.62;99970.38;10526918;28;20076;-71
2021/12/05 09:25:03;;;;;;;11.63;5.38;;;;;;;4.51;89.25;99992.84;10529291;28;20089;-73
2021/12/05 09:51:39;;;;;;;8.75;6.00;;;;;;;4.69;88.23;99955.34;10498340;28;20059;-73
2021/12/05 10:38:35;;;;;;;11.00;6.53;;;;;;;4.59;86.07;99852.75;10517037;28;20040;-73
2021/12/05 10:43:36;;;;;;;11.23;7.15;;;;;;;5.06;86.33;99997.56;10524440;28;20040;-74
2021/12/05 10:48:53;;;;;;;13.32;7.63;;;;;;;3.93;85.73;99819.31;10523421;28;20044;-74
2021/12/05 10:54:22;;;;;;;10.82;7.70;;;;;;;4.92;85.25;99934.81;10524135;28;20087;-73
2021/12/05 10:59:40;;;;;;;12.68;7.00;;;;;;;5.02;86.10;99989.09;10518198;28;20131;-76
2021/12/05 11:04:46;;;;;;;11.15;7.35;;;;;;;4.83;86.64;99994.41;10524842;28;20039;-74
2021/12/05 11:09:49;;;;;;;12.32;7.22;;;;;;;4.95;86.75;100003.81;10526107;28;20047;-73
2021/12/05 11:14:52;;;;;;;11.02;6.78;;;;;;;4.99;86.76;99992.00;10527158;28;20036;-73
2021/12/05 11:20:18;;;;;;;14.60;7.05;;;;;;;4.94;86.29;99989.00;10509205;28;20040;-74
2021/12/05 11:25:28;;;;;;;14.88;6.93;;;;;;;4.95;86.75;99985.38;10522128;28;20036;-74
2021/12/05 11:30:32;;;;;;;11.07;6.53;;;;;;;5.22;86.71;100015.41;10515909;28;20101;-72
2021/12/05 11:35:39;;;;;;;11.13;7.30;;;;;;;5.33;86.50;99998.63;10512894;28;20072;-69
2021/12/05 11:40:43;;;;;;;13.18;7.93;;;;;;;5.33;86.88;100011.78;10518837;28;20044;-70
2021/12/05 11:45:59;;;;;;;13.00;8.20;;;;;;;5.33;86.73;99991.56;10537445;28;20047;-68
2021/12/05 11:51:17;;;;;;;14.98;7.60;;;;;;;5.16;86.77;99998.38;10540207;28;20036;-71
2021/12/05 11:56:22;;;;;;;11.65;7.28;;;;;;;5.48;86.88;100063.88;10527939;28;20050;-67
2021/12/05 12:01:23;;;;;;;11.15;7.70;;;;;;;5.49;87.13;100057.63;10544941;28;20115;-68
2021/12/05 12:06:24;;;;;;;14.57;9.27;;;;;;;5.35;86.30;99992.22;10545394;28;20139;-68
2021/12/05 12:11:26;;;;;;;11.50;7.88;;;;;;;5.09;86.88;99947.25;10543813;28;20400;-71
2021/12/05 12:16:33;;;;;;;14.00;8.40;;;;;;;5.37;87.03;100002.63;10529599;28;20492;-71
2021/12/05 12:21:41;;;;;;;13.00;8.55;;;;;;;5.15;88.16;100009.88;10544014;28;20508;-71
2021/12/05 12:26:43;;;;;;;13.02;7.70;;;;;;;4.34;87.06;99896.25;10543872;28;20112;-72
2021/12/05 12:31:47;;;;;;;15.55;8.50;;;;;;;5.13;87.56;100075.00;10510999;28;20182;-71
2021/12/05 12:36:57;;;;;;;20.48;8.80;;;;;;;4.93;88.53;100025.97;10519342;28;20091;-71
2021/12/05 12:42:23;;;;;;;18.02;7.75;;;;;;;4.85;88.43;100010.06;10532702;28;20403;-71
2021/12/05 12:47:54;;;;;;;15.00;7.88;;;;;;;4.96;88.11;100015.16;10543425;28;20461;-72
2021/12/05 12:53:11;;;;;;;13.23;8.10;;;;;;;3.72;89.03;99842.28;10523454;28;20048;-72
2021/12/05 12:58:32;;;;;;;18.48;9.13;;;;;;;4.96;89.50;100049.38;10519888;28;23411;-69
2021/12/05 13:04:28;;;;;;;30.20;9.27;;;;;;;5.10;89.60;100061.31;10523937;28;20504;-72
2021/12/05 13:15:04;;;;;;;21.80;9.75;;;;;;;5.02;89.50;100080.41;10533588;28;20048;-76
2021/12/05 13:20:06;;;;;;;16.08;8.73;;;;;;;4.88;89.97;100073.78;10517096;28;20104;-73
2021/12/05 13:25:09;;;;;;;17.30;8.80;;;;;;;4.80;90.16;100055.19;10478532;28;20040;-73
2021/12/05 13:30:10;;;;;;;11.52;7.30;;;;;;;4.65;89.44;100046.88;10485947;28;20051;-69
2021/12/05 13:35:12;;;;;;;20.83;11.30;;;;;;;4.37;89.84;100030.09;10468200;28;20127;-72
2021/12/05 13:40:22;;;;;;;18.20;10.48;;;;;;;4.67;91.01;100075.69;10476244;28;20136;-72
2021/12/05 13:45:23;;;;;;;17.67;9.73;;;;;;;4.77;90.36;100092.31;10494004;28;20102;-71
2021/12/05 13:50:34;;;;;;;25.77;13.60;;;;;;;4.67;90.77;100083.59;10469827;28;20072;-71
2021/12/05 13:56:01;;;;;;;22.85;13.35;;;;;;;4.52;90.59;100073.47;10464841;28;20511;-71
2021/12/05 14:01:08;;;;;;;18.35;10.45;;;;;;;4.55;91.13;100096.03;10462346;28;20053;-71
2021/12/05 14:06:31;;;;;;;16.77;9.52;;;;;;;4.39;91.96;100090.44;10470523;28;20067;-72
2021/12/05 14:11:35;;;;;;;13.63;7.73;;;;;;;4.10;92.00;100086.75;10453813;28;20095;-72
2021/12/05 14:16:42;;;;;;;15.33;8.60;;;;;;;4.77;92.99;100164.19;10462627;28;20041;-72
2021/12/05 14:21:53;;;;;;;15.43;9.15;;;;;;;4.70;92.51;100135.94;10447693;28;20574;-73
2021/12/05 14:26:58;;;;;;;14.45;8.40;;;;;;;4.38;91.02;100086.97;10447108;28;20044;-72
2021/12/05 14:32:10;;;;;;;18.02;8.35;;;;;;;3.07;91.48;99863.63;10443189;28;20041;-74
2021/12/05 14:37:19;;;;;;;23.25;14.48;;;;;;;3.63;92.46;99968.19;10442881;28;20515;-72
2021/12/05 14:42:25;;;;;;;24.95;14.40;;;;;;;4.04;91.37;100028.63;10449451;28;20037;-71
2021/12/05 14:47:30;;;;;;;15.55;9.82;;;;;;;4.41;92.00;100091.16;10437659;28;20064;-71
2021/12/05 14:52:34;;;;;;;15.43;9.27;;;;;;;3.67;90.92;99960.88;10407149;28;20052;-71
2021/12/05 14:57:45;;;;;;;14.98;10.00;;;;;;;4.49;92.32;100134.22;10428290;28;20053;-72
2021/12/05 15:02:47;;;;;;;18.05;10.18;;;;;;;4.58;91.63;100158.91;10426470;28;21495;-72
2021/12/05 15:07:48;;;;;;;12.60;9.02;;;;;;;3.52;91.58;99989.28;10426234;28;20037;-72
2021/12/05 15:12:53;;;;;;;22.75;9.27;;;;;;;3.91;92.30;100086.66;10418401;28;20049;-73
2021/12/05 15:17:56;;;;;;;13.75;8.48;;;;;;;3.39;92.09;100012.31;10413345;28;20041;-72
2021/12/05 15:23:07;;;;;;;29.60;10.93;;;;;;;4.24;92.16;100245.09;10413206;28;20088;-72
2021/12/05 15:28:10;;;;;;;21.65;11.18;;;;;;;4.15;93.00;100224.84;10412326;28;20042;-71
2021/12/05 15:33:22;;;;;;;14.52;9.18;;;;;;;3.73;93.08;100160.00;10412417;28;20046;-72
2021/12/05 15:38:27;;;;;;;12.75;8.18;;;;;;;4.07;92.86;100239.50;10413338;28;20048;-72
2021/12/05 15:43:28;;;;;;;21.05;10.95;;;;;;;3.33;93.24;100150.19;10412706;28;20033;-71
2021/12/05 15:48:36;;;;;;;28.77;14.30;;;;;;;2.98;92.98;100090.09;10455607;28;20125;-71
2021/12/05 15:53:38;;;;;;;20.77;12.57;;;;;;;3.35;92.61;100169.28;10495288;28;20044;-71
2021/12/05 15:58:44;;;;;;;26.30;16.50;;;;;;;3.63;93.24;100236.13;10495162;28;20067;-72
2021/12/05 16:03:55;;;;;;;26.20;15.50;;;;;;;3.43;93.40;100214.09;10495079;28;20040;-72
2021/12/05 16:08:57;;;;;;;29.08;19.95;;;;;;;3.19;93.38;100206.44;10494935;28;20399;-71
2021/12/05 16:13:58;;;;;;;29.52;18.75;;;;;;;3.17;93.63;100218.00;10495323;28;20135;-71
2021/12/05 16:19:02;;;;;;;33.90;18.63;;;;;;;2.44;93.65;100110.13;10495832;28;20511;-72
2021/12/05 16:24:10;;;;;;;44.30;27.20;;;;;;;2.98;93.68;100231.78;10469514;28;20049;-72
2021/12/05 16:29:15;;;;;;;41.75;19.33;;;;;;;2.16;94.16;100105.41;10449736;28;20079;-72
2021/12/05 16:34:19;;;;;;;54.15;26.67;;;;;;;3.16;93.60;100274.94;10494012;28;20135;-72
2021/12/05 16:39:33;;;;;;;39.60;19.77;;;;;;;2.79;93.88;100202.72;10500291;28;20032;-73
2021/12/05 16:44:37;;;;;;;39.63;20.00;;;;;;;2.31;93.66;100154.00;10492909;28;20504;-71
2021/12/05 16:49:42;;;;;;;39.42;18.98;;;;;;;2.79;93.46;100245.53;10403031;28;20062;-72
2021/12/05 16:54:57;;;;;;;43.20;20.90;;;;;;;2.38;93.55;100206.78;10380929;28;20038;-72
2021/12/05 17:00:12;;;;;;;40.10;20.88;;;;;;;2.56;94.23;100260.41;10419047;28;20050;-72
2021/12/05 17:05:18;;;;;;;47.42;23.23;;;;;;;2.42;93.99;100260.66;10418065;28;20073;-72
2021/12/05 17:10:25;;;;;;;40.38;22.08;;;;;;;2.43;94.83;100254.47;10388690;28;20089;-72
2021/12/05 17:15:31;;;;;;;40.20;19.92;;;;;;;2.35;93.83;100259.44;10411482;28;20416;-72
2021/12/05 17:20:42;;;;;;;44.03;19.88;;;;;;;1.33;93.81;100109.94;10458177;28;20064;-72
2021/12/05 17:25:46;;;;;;;40.50;18.35;;;;;;;2.23;95.14;100258.59;10457881;28;20033;-72
2021/12/05 17:30:53;;;;;;;37.55;17.38;;;;;;;1.34;94.32;100119.44;10441326;28;20041;-72
2021/12/05 17:35:55;;;;;;;38.75;15.85;;;;;;;2.06;95.03;100246.75;10436501;28;20167;-72
2021/12/05 17:40:56;;;;;;;25.08;13.70;;;;;;;2.03;93.82;100245.22;10412810;28;20552;-72
2021/12/05 17:45:57;;;;;;;22.95;12.60;;;;;;;1.86;93.40;100255.31;10409161;28;20047;-72
2021/12/05 17:51:02;;;;;;;29.10;12.80;;;;;;;1.86;94.19;100276.25;10480122;28;20071;-73
2021/12/05 17:56:16;;;;;;;22.35;12.05;;;;;;;0.89;94.90;100126.28;10475977;28;20060;-74
2021/12/05 18:06:36;;;;;;;25.45;14.27;;;;;;;1.76;95.18;100282.16;10427726;28;20882;-73
2021/12/05 18:11:37;;;;;;;25.45;13.63;;;;;;;1.56;95.13;100269.72;10470216;28;20067;-72
2021/12/05 18:16:39;;;;;;;23.75;13.65;;;;;;;1.40;94.92;100258.66;10442107;28;20049;-73
2021/12/05 18:21:41;;;;;;;61.35;31.90;;;;;;;0.60;94.41;100151.91;10445192;28;20041;-73
2021/12/05 18:26:43;;;;;;;42.13;21.15;;;;;;;0.21;94.83;100119.81;10456649;28;20071;-74
2021/12/05 18:31:46;;;;;;;31.90;14.43;;;;;;;0.38;94.91;100187.38;10453263;28;20033;-73
2021/12/05 18:36:48;;;;;;;26.65;12.40;;;;;;;1.04;94.19;100326.59;10432187;28;20040;-73
2021/12/05 18:41:51;;;;;;;25.75;12.93;;;;;;;1.03;94.45;100316.25;10457394;28;20045;-73
2021/12/05 18:46:54;;;;;;;22.88;12.63;;;;;;;0.98;94.62;100321.78;10430358;28;20049;-73
2021/12/05 18:51:58;;;;;;;22.45;12.07;;;;;;;-0.79;94.73;100055.31;10455085;28;20052;-74
2021/12/05 18:56:59;;;;;;;24.70;14.18;;;;;;;0.24;95.41;100245.00;10474784;28;20531;-73
2021/12/05 19:07:31;;;;;;;24.95;14.25;;;;;;;0.73;94.38;100322.66;10446657;28;20046;-73
2021/12/05 19:12:35;;;;;;;29.57;15.53;;;;;;;0.77;95.18;100324.13;10449426;28;20140;-73
2021/12/05 19:17:40;;;;;;;27.95;15.48;;;;;;;0.71;93.63;100327.16;10461086;28;20505;-73
2021/12/05 19:22:43;;;;;;;21.45;12.23;;;;;;;0.03;93.69;100256.88;10442870;28;20040;-72
2021/12/05 19:27:46;;;;;;;28.02;13.43;;;;;;;0.42;94.89;100343.06;10412989;28;20426;-73
2021/12/05 19:32:48;;;;;;;24.55;12.88;;;;;;;0.43;95.55;100347.34;10410880;28;20049;-73
2021/12/05 19:37:49;;;;;;;32.78;14.27;;;;;;;0.10;94.63;100300.78;10412105;28;20037;-73
2021/12/05 19:42:51;;;;;;;25.55;13.52;;;;;;;-0.50;94.62;100222.97;10412580;28;20135;-73
2021/12/05 19:47:53;;;;;;;25.90;11.98;;;;;;;0.43;94.57;100359.56;10410699;28;20080;-73
2021/12/05 19:52:55;;;;;;;23.85;12.95;;;;;;;0.33;93.35;100377.63;10412330;28;20048;-73
2021/12/05 19:57:56;;;;;;;21.83;11.52;;;;;;;-1.46;93.59;100103.09;10410725;28;20045;-72
2021/12/05 20:02:57;;;;;;;21.80;11.23;;;;;;;-1.02;94.04;100167.16;10411239;28;20052;-73
2021/12/05 20:08:00;;;;;;;21.80;10.82;;;;;;;-1.62;93.87;100097.16;10394259;28;20046;-73
2021/12/05 20:13:02;;;;;;;28.13;9.88;;;;;;;0.00;94.14;100378.09;10414148;28;20095;-73
2021/12/05 20:18:08;;;;;;;22.42;10.60;;;;;;;0.06;94.59;100400.31;10418055;28;20041;-73
2021/12/05 20:23:11;;;;;;;19.88;10.15;;;;;;;-1.09;93.84;100198.94;10417083;28;20124;-73
2021/12/05 20:28:12;;;;;;;21.60;10.45;;;;;;;-0.18;94.33;100407.97;10417906;28;20033;-73
2021/12/05 20:33:15;;;;;;;27.35;12.68;;;;;;;-0.12;95.92;100411.03;10416813;28;20044;-73
2021/12/05 20:38:15;;;;;;;26.65;13.80;;;;;;;-0.36;95.36;100381.25;10415951;28;20056;-75
2021/12/05 20:43:18;;;;;;;32.75;14.05;;;;;;;0.11;96.35;100433.06;10415814;28;20037;-73
2021/12/05 20:48:19;;;;;;;23.30;13.20;;;;;;;-0.15;95.29;100377.28;10415600;28;20065;-73
2021/12/05 20:53:23;;;;;;;30.58;12.35;;;;;;;-0.17;94.87;100384.38;10416215;28;20419;-73
2021/12/05 20:58:24;;;;;;;21.77;12.30;;;;;;;-1.15;94.07;100245.31;10415796;28;20459;-73
2021/12/05 21:03:25;;;;;;;21.33;11.93;;;;;;;-0.49;93.87;100358.53;10415571;28;20091;-73
2021/12/05 21:08:30;;;;;;;22.17;11.68;;;;;;;-0.61;94.03;100355.88;10440296;28;20037;-73
2021/12/05 21:13:31;;;;;;;25.00;13.25;;;;;;;-0.64;95.09;100350.84;10415614;28;20084;-73
2021/12/05 21:18:34;;;;;;;33.70;12.52;;;;;;;-1.01;94.65;100293.16;10413405;28;20037;-73
2021/12/05 21:23:35;;;;;;;28.17;13.30;;;;;;;-0.77;95.14;100349.00;10414188;28;20559;-73
2021/12/05 21:28:36;;;;;;;31.15;12.88;;;;;;;-0.13;94.71;100422.41;10416092;28;20524;-73
2021/12/05 21:33:37;;;;;;;25.70;13.57;;;;;;;-0.16;93.97;100422.59;10415662;28;20397;-73
2021/12/05 21:38:39;;;;;;;28.88;13.63;;;;;;;-0.20;94.63;100431.56;10413325;28;20094;-73
2021/12/05 21:43:43;;;;;;;28.13;13.48;;;;;;;-0.70;94.67;100350.28;10415146;28;20101;-73
2021/12/05 21:48:44;;;;;;;26.07;15.03;;;;;;;-0.32;94.50;100427.13;10414682;28;20057;-73
2021/12/05 21:53:48;;;;;;;26.88;14.98;;;;;;;-0.59;94.64;100380.09;10413400;28;20501;-73
2021/12/05 21:58:51;;;;;;;32.83;12.63;;;;;;;-0.40;93.79;100432.81;10413645;28;20045;-73
2021/12/05 22:03:53;;;;;;;27.92;13.68;;;;;;;-0.29;94.03;100464.31;10413591;28;20037;-73
2021/12/05 22:08:55;;;;;;;23.48;12.65;;;;;;;-0.40;94.65;100431.97;10414038;28;20038;-73
2021/12/05 22:13:56;;;;;;;22.73;11.52;;;;;;;-0.39;94.43;100468.44;10414111;28;20040;-73
2021/12/05 22:18:58;;;;;;;26.50;11.55;;;;;;;-0.48;93.83;100435.91;10412546;28;20037;-73
2021/12/05 22:24:02;;;;;;;30.88;12.75;;;;;;;-0.77;94.25;100405.56;10414373;28;20052;-73
2021/12/05 22:29:06;;;;;;;31.80;12.47;;;;;;;-0.69;94.63;100424.16;10411643;28;20049;-73
2021/12/05 22:34:08;;;;;;;24.45;12.68;;;;;;;-0.49;94.73;100470.75;10411130;28;20041;-73
2021/12/05 22:39:12;;;;;;;19.30;11.73;;;;;;;-0.35;95.08;100495.19;10413225;28;20095;-73
2021/12/05 22:44:13;;;;;;;23.43;11.03;;;;;;;-1.18;93.77;100390.66;10412595;28;20092;-73
2021/12/05 22:49:14;;;;;;;18.27;10.48;;;;;;;-0.95;93.33;100429.22;10412390;28;20057;-73
2021/12/05 22:54:15;;;;;;;21.75;11.32;;;;;;;-0.75;94.35;100489.75;10411832;28;20041;-73
2021/12/05 22:59:16;;;;;;;20.20;10.23;;;;;;;-0.44;94.17;100529.69;10413236;28;20456;-73
2021/12/05 23:04:18;;;;;;;18.70;10.75;;;;;;;-0.52;93.68;100530.13;10430519;28;20087;-73
2021/12/05 23:09:19;;;;;;;23.65;10.93;;;;;;;-0.53;94.21;100534.50;10449907;28;20519;-73
2021/12/05 23:14:21;;;;;;;23.15;11.70;;;;;;;-1.07;93.68;100466.44;10453023;28;20393;-73
2021/12/05 23:19:21;;;;;;;26.67;10.40;;;;;;;-0.63;94.01;100575.13;10453368;28;20107;-73
2021/12/05 23:24:27;;;;;;;27.20;11.30;;;;;;;-1.57;93.27;100425.94;10452662;28;20067;-73
2021/12/05 23:29:32;;;;;;;18.48;10.32;;;;;;;-1.69;92.95;100406.63;10452975;28;20044;-73
2021/12/05 23:34:33;;;;;;;20.50;10.82;;;;;;;-0.83;93.31;100568.47;10451767;28;20539;-73
2021/12/05 23:39:35;;;;;;;24.63;10.25;;;;;;;-0.98;93.42;100538.09;10452543;28;20048;-73
2021/12/05 23:44:36;;;;;;;31.10;11.27;;;;;;;-0.83;93.40;100562.44;10452815;28;20142;-74
2021/12/05 23:49:37;;;;;;;20.40;9.65;;;;;;;-0.72;94.00;100579.13;10434287;28;20135;-73
2021/12/05 23:54:38;;;;;;;18.23;10.07;;;;;;;-0.63;94.15;100564.69;10460314;28;20049;-73
2021/12/05 23:59:39;;;;;;;18.05;10.00;;;;;;;-0.49;94.09;100576.91;10460808;28;20072;-73
